Time;durP1;ratioP1;P1;durP2;ratioP2;P2;SDS_P1;SDS_P2;PMS_P1;PMS_P2;Temp;Humidity;BMP_temperature;BMP_pressure;BME280_temperature;BME280_humidity;BME280_pressure;Samples;Min_cycle;Max_cycle;Signal;HPM_P1;HPM_P2
2021/04/22 00:00:31;;;;;;;5.77;4.97;;;11.60;93.20;;;;;;5072320;28;20217;-62
2021/04/22 00:02:58;;;;;;;6.63;5.17;;;11.60;93.10;;;;;;5072029;28;20224;-62
2021/04/22 00:05:27;;;;;;;7.13;5.03;;;11.70;93.00;;;;;;5072339;28;20258;-62
2021/04/22 00:07:54;;;;;;;7.83;5.10;;;11.70;93.00;;;;;;5072410;28;20552;-62
2021/04/22 00:10:26;;;;;;;6.43;4.97;;;11.80;93.00;;;;;;5071975;28;20212;-62
2021/04/22 00:12:52;;;;;;;7.47;5.27;;;11.80;93.10;;;;;;5071845;28;20228;-62
2021/04/22 00:15:20;;;;;;;7.13;5.37;;;11.80;93.20;;;;;;5071281;28;20251;-62
2021/04/22 00:17:49;;;;;;;7.73;5.13;;;11.80;93.20;;;;;;5072159;28;20263;-62
2021/04/22 00:20:17;;;;;;;9.03;6.80;;;11.80;93.70;;;;;;5072015;28;20208;-62
2021/04/22 00:22:43;;;;;;;8.37;6.03;;;11.80;94.30;;;;;;5071793;28;20228;-62
2021/04/22 00:25:12;;;;;;;6.23;5.57;;;11.80;94.70;;;;;;5072042;28;20204;-62
2021/04/22 00:27:38;;;;;;;6.63;5.50;;;11.90;94.60;;;;;;5071613;28;20212;-62
2021/04/22 00:30:07;;;;;;;7.73;6.00;;;11.90;94.90;;;;;;5072083;28;20228;-62
2021/04/22 00:32:33;;;;;;;9.10;5.67;;;12.00;94.90;;;;;;5071577;28;20225;-62
2021/04/22 00:35:00;;;;;;;8.13;5.90;;;12.10;94.70;;;;;;5071387;28;20209;-62
2021/04/22 00:37:26;;;;;;;8.33;6.90;;;12.10;94.40;;;;;;5071183;28;20665;-63
2021/04/22 00:39:52;;;;;;;8.77;7.67;;;11.90;94.70;;;;;;5071500;28;20237;-62
2021/04/22 00:42:18;;;;;;;10.80;8.63;;;11.80;94.90;;;;;;5071519;28;20228;-62
2021/04/22 00:44:47;;;;;;;8.33;6.90;;;11.80;95.10;;;;;;5071212;28;20225;-62
2021/04/22 00:47:14;;;;;;;9.13;6.90;;;11.70;95.20;;;;;;5071164;28;20200;-62
2021/04/22 00:49:41;;;;;;;7.93;6.40;;;11.70;95.50;;;;;;5071021;28;20217;-62
2021/04/22 00:52:10;;;;;;;11.60;6.83;;;11.60;95.60;;;;;;5071239;28;20229;-61
2021/04/22 00:54:37;;;;;;;7.17;6.47;;;11.50;95.80;;;;;;5070877;28;20201;-62
2021/04/22 00:57:03;;;;;;;7.13;6.13;;;11.50;96.30;;;;;;5070935;28;20204;-62
2021/04/22 00:59:30;;;;;;;8.50;5.93;;;11.40;96.70;;;;;;5071094;28;20209;-62
2021/04/22 01:01:56;;;;;;;6.07;5.47;;;11.40;97.20;;;;;;5070937;28;20224;-62
2021/04/22 01:04:22;;;;;;;8.77;6.23;;;11.40;97.60;;;;;;5070797;28;20232;-62
2021/04/22 01:06:49;;;;;;;7.33;6.33;;;11.40;97.90;;;;;;5070930;28;20258;-62
2021/04/22 01:09:16;;;;;;;7.97;6.77;;;11.30;98.10;;;;;;5070826;28;20646;-62
2021/04/22 01:11:42;;;;;;;8.37;7.10;;;11.30;98.10;;;;;;5070431;28;20211;-62
2021/04/22 01:14:09;;;;;;;8.17;7.33;;;11.30;98.10;;;;;;5070724;28;20220;-62
2021/04/22 01:16:35;;;;;;;8.47;6.23;;;11.30;98.50;;;;;;5071007;28;20200;-62
2021/04/22 01:19:02;;;;;;;11.13;6.87;;;11.20;97.80;;;;;;5070541;28;20205;-62
2021/04/22 01:21:29;;;;;;;11.33;6.63;;;11.20;97.80;;;;;;5070751;28;20208;-62
2021/04/22 01:23:55;;;;;;;10.00;7.70;;;11.20;97.90;;;;;;5070564;28;20225;-62
2021/04/22 01:26:23;;;;;;;9.13;6.90;;;11.10;98.00;;;;;;5070924;28;20209;-62
2021/04/22 01:28:51;;;;;;;9.60;6.80;;;11.00;98.10;;;;;;5073895;28;20205;-62
2021/04/22 01:31:17;;;;;;;9.87;6.90;;;11.00;98.40;;;;;;5074783;28;20204;-62
2021/04/22 01:33:44;;;;;;;7.37;6.30;;;11.00;98.70;;;;;;5074638;28;20220;-62
2021/04/22 01:36:10;;;;;;;9.73;6.57;;;10.90;98.90;;;;;;5074906;28;20208;-62
2021/04/22 01:38:38;;;;;;;8.93;6.83;;;10.80;99.00;;;;;;5075019;28;20212;-62
2021/04/22 01:41:06;;;;;;;9.17;6.50;;;10.80;99.00;;;;;;5075329;28;20207;-62
2021/04/22 01:43:32;;;;;;;10.43;7.13;;;10.70;99.20;;;;;;5074713;28;20251;-62
2021/04/22 01:45:59;;;;;;;8.17;6.83;;;10.70;99.30;;;;;;5074673;28;20205;-62
2021/04/22 01:48:27;;;;;;;8.10;6.53;;;10.80;99.50;;;;;;5074576;28;20205;-61
2021/04/22 01:50:54;;;;;;;9.37;6.80;;;10.70;99.80;;;;;;5074308;28;20204;-62
2021/04/22 01:53:21;;;;;;;9.00;6.57;;;10.70;99.90;;;;;;5074300;28;20228;-62
2021/04/22 01:55:50;;;;;;;8.23;6.67;;;10.70;99.90;;;;;;5074444;28;20683;-62
2021/04/22 01:58:18;;;;;;;8.20;6.87;;;10.80;99.90;;;;;;5074666;28;20490;-62
2021/04/22 02:00:48;;;;;;;9.93;7.00;;;10.80;99.90;;;;;;5074700;28;20209;-62
2021/04/22 02:03:14;;;;;;;8.10;7.30;;;10.90;99.90;;;;;;5074274;28;20225;-62
2021/04/22 02:05:41;;;;;;;9.83;7.43;;;10.90;99.90;;;;;;5074335;28;20213;-62
2021/04/22 02:08:09;;;;;;;8.73;6.70;;;11.00;99.80;;;;;;5074589;28;20292;-62
2021/04/22 02:10:36;;;;;;;8.30;7.10;;;11.10;99.80;;;;;;5074104;28;20201;-62
2021/04/22 02:13:04;;;;;;;8.77;7.30;;;11.10;99.70;;;;;;5073735;28;20235;-62
2021/04/22 02:15:31;;;;;;;9.17;6.80;;;11.10;99.70;;;;;;5073743;28;20235;-62
2021/04/22 02:17:58;;;;;;;9.57;7.17;;;11.10;99.70;;;;;;5073653;28;20212;-62
2021/04/22 02:20:25;;;;;;;8.50;7.60;;;11.10;99.70;;;;;;5073696;28;20695;-62
2021/04/22 02:22:53;;;;;;;7.97;7.17;;;11.00;99.80;;;;;;5073819;28;20270;-62
2021/04/22 02:25:21;;;;;;;9.30;8.30;;;11.00;99.90;;;;;;5073705;28;20208;-62
2021/04/22 02:27:48;;;;;;;9.23;7.43;;;10.90;99.90;;;;;;5073536;28;20205;-62
2021/04/22 02:30:18;;;;;;;9.77;8.07;;;10.90;99.90;;;;;;5073631;28;20211;-62
2021/04/22 02:32:44;;;;;;;8.57;7.47;;;10.90;99.90;;;;;;5073346;28;20232;-62
2021/04/22 02:35:13;;;;;;;11.57;8.27;;;10.80;99.90;;;;;;5073535;28;20246;-62
2021/04/22 02:37:39;;;;;;;9.23;7.20;;;10.80;99.90;;;;;;5073395;28;20618;-62
2021/04/22 02:40:07;;;;;;;8.30;7.27;;;10.80;99.90;;;;;;5073084;28;20212;-62
2021/04/22 02:42:34;;;;;;;8.03;7.23;;;10.80;99.90;;;;;;5073429;28;20232;-62
2021/04/22 02:45:01;;;;;;;11.50;7.97;;;10.80;99.90;;;;;;5073173;28;20229;-62
2021/04/22 02:47:28;;;;;;;8.73;6.60;;;10.70;99.90;;;;;;5073257;28;20205;-62
2021/04/22 02:49:54;;;;;;;11.70;7.30;;;10.60;99.90;;;;;;5073418;28;20204;-62
2021/04/22 02:52:20;;;;;;;8.73;7.27;;;10.60;99.90;;;;;;5073339;28;20229;-62
2021/04/22 02:54:46;;;;;;;9.07;7.07;;;10.60;99.90;;;;;;5073289;28;20216;-62
2021/04/22 02:57:13;;;;;;;9.77;7.00;;;10.60;99.90;;;;;;5073315;28;20676;-62
2021/04/22 02:59:39;;;;;;;8.20;7.40;;;10.70;99.90;;;;;;5073672;28;20257;-62
2021/04/22 03:02:06;;;;;;;7.83;7.07;;;10.70;99.90;;;;;;5073173;28;20239;-62
2021/04/22 03:04:33;;;;;;;8.23;7.40;;;10.70;99.90;;;;;;5072877;28;20708;-62
2021/04/22 03:06:59;;;;;;;9.37;6.93;;;10.80;99.90;;;;;;5073090;28;20209;-62
2021/04/22 03:09:25;;;;;;;8.17;7.37;;;10.90;99.90;;;;;;5073031;28;20209;-62
2021/04/22 03:11:52;;;;;;;10.60;7.30;;;11.00;99.90;;;;;;5073283;28;20477;-62
2021/04/22 03:14:18;;;;;;;8.87;7.97;;;11.10;99.90;;;;;;5072657;28;20205;-63
2021/04/22 03:16:44;;;;;;;10.83;9.07;;;11.20;99.90;;;;;;5072997;28;20258;-62
2021/04/22 03:19:11;;;;;;;9.27;8.07;;;11.20;99.90;;;;;;5072754;28;20583;-62
2021/04/22 03:21:38;;;;;;;12.50;10.03;;;11.10;99.90;;;;;;5072806;28;20216;-62
2021/04/22 03:24:05;;;;;;;11.43;9.50;;;11.10;99.90;;;;;;5072483;28;20227;-63
2021/04/22 03:26:31;;;;;;;11.07;9.47;;;11.00;99.90;;;;;;5072520;28;20209;-62
2021/04/22 03:28:57;;;;;;;11.50;8.93;;;11.00;99.90;;;;;;5072855;28;20205;-62
2021/04/22 03:31:24;;;;;;;12.20;9.20;;;11.00;99.90;;;;;;5072590;28;20212;-62
2021/04/22 03:33:51;;;;;;;13.17;8.63;;;11.00;99.90;;;;;;5072151;28;20229;-62
2021/04/22 03:36:17;;;;;;;14.73;9.23;;;11.00;99.90;;;;;;5072365;28;20205;-62
2021/04/22 03:38:44;;;;;;;11.40;9.00;;;11.00;99.90;;;;;;5072069;28;20574;-62
2021/04/22 03:41:10;;;;;;;12.57;9.90;;;11.00;99.90;;;;;;5072133;28;20201;-62
2021/04/22 03:43:37;;;;;;;12.63;9.27;;;11.00;99.90;;;;;;5071620;28;20233;-63
2021/04/22 03:46:03;;;;;;;11.80;9.20;;;10.90;99.90;;;;;;5072487;28;20205;-61
2021/04/22 03:48:29;;;;;;;10.90;8.93;;;10.90;99.90;;;;;;5072260;28;20243;-62
2021/04/22 03:50:56;;;;;;;10.80;9.40;;;10.80;99.90;;;;;;5071428;28;20219;-62
2021/04/22 03:53:22;;;;;;;10.77;9.40;;;10.70;99.90;;;;;;5071833;28;20221;-63
2021/04/22 03:55:49;;;;;;;10.03;8.90;;;10.60;99.90;;;;;;5071958;28;20201;-62
2021/04/22 03:58:15;;;;;;;11.37;9.17;;;10.50;99.90;;;;;;5071863;28;20209;-62
2021/04/22 04:00:42;;;;;;;12.37;9.67;;;10.50;99.90;;;;;;5072297;28;20228;-62
2021/04/22 04:03:08;;;;;;;11.27;9.90;;;10.40;99.90;;;;;;5071992;28;20224;-62
2021/04/22 04:05:34;;;;;;;15.67;9.80;;;10.30;99.90;;;;;;5071798;28;20620;-62
2021/04/22 04:08:01;;;;;;;11.03;9.90;;;10.30;99.90;;;;;;5071720;28;20227;-63
2021/04/22 04:10:27;;;;;;;11.37;10.17;;;10.20;99.90;;;;;;5071968;28;20224;-63
2021/04/22 04:12:54;;;;;;;14.70;11.87;;;10.10;99.90;;;;;;5071525;28;20233;-62
2021/04/22 04:15:20;;;;;;;14.43;10.77;;;10.10;99.90;;;;;;5071759;28;20213;-61
2021/04/22 04:17:46;;;;;;;12.77;11.23;;;10.00;99.90;;;;;;5071954;28;20231;-61
2021/04/22 04:20:15;;;;;;;13.77;11.43;;;10.00;99.90;;;;;;5072130;28;20208;-62
2021/04/22 04:22:41;;;;;;;18.50;11.57;;;10.00;99.90;;;;;;5071626;28;20282;-62
2021/04/22 04:25:09;;;;;;;16.53;11.47;;;10.00;99.90;;;;;;5071558;28;20227;-62
2021/04/22 04:27:36;;;;;;;15.17;12.20;;;10.00;99.90;;;;;;5071565;28;20200;-62
2021/04/22 04:30:04;;;;;;;23.27;17.93;;;10.00;99.90;;;;;;5071432;28;20674;-63
2021/04/22 04:32:31;;;;;;;16.40;12.90;;;10.00;99.90;;;;;;5071548;28;20226;-62
2021/04/22 04:34:57;;;;;;;14.97;11.87;;;10.00;99.90;;;;;;5071414;28;20197;-62
2021/04/22 04:37:23;;;;;;;17.77;12.23;;;10.10;99.90;;;;;;5070946;28;20205;-62
2021/04/22 04:39:49;;;;;;;13.73;12.00;;;10.20;99.90;;;;;;5071085;28;20213;-62
2021/04/22 04:42:16;;;;;;;20.73;13.97;;;10.20;99.90;;;;;;5071185;28;20224;-62
2021/04/22 04:44:42;;;;;;;17.97;14.30;;;10.30;99.90;;;;;;5071099;28;20228;-62
2021/04/22 04:47:09;;;;;;;17.77;13.50;;;10.30;99.90;;;;;;5071573;28;20212;-63
2021/04/22 04:49:35;;;;;;;15.97;12.87;;;10.40;99.90;;;;;;5071190;28;20209;-62
2021/04/22 04:52:01;;;;;;;15.33;12.87;;;10.50;99.90;;;;;;5071338;28;20603;-62
2021/04/22 04:54:28;;;;;;;42.07;28.53;;;10.50;99.90;;;;;;5070591;28;20212;-62
2021/04/22 04:56:54;;;;;;;20.67;14.40;;;10.60;99.90;;;;;;5071005;28;20212;-62
2021/04/22 04:59:20;;;;;;;17.30;12.83;;;10.70;99.90;;;;;;5071106;28;20270;-62
2021/04/22 05:01:46;;;;;;;19.40;13.20;;;10.80;99.90;;;;;;5070830;28;20205;-62
2021/04/22 05:04:13;;;;;;;16.63;12.27;;;10.90;99.90;;;;;;5070780;28;20225;-62
2021/04/22 05:06:40;;;;;;;18.87;14.23;;;11.10;99.90;;;;;;5070950;28;20201;-63
2021/04/22 05:09:07;;;;;;;16.67;12.63;;;11.20;99.90;;;;;;5070845;28;20683;-62
2021/04/22 05:11:33;;;;;;;19.37;13.40;;;11.20;99.90;;;;;;5070913;28;20551;-62
2021/04/22 05:13:59;;;;;;;15.87;12.80;;;11.30;99.90;;;;;;5070604;28;20201;-62
2021/04/22 05:16:25;;;;;;;20.23;12.90;;;11.40;99.90;;;;;;5070727;28;20213;-62
2021/04/22 05:18:52;;;;;;;24.37;17.67;;;11.50;99.90;;;;;;5070546;28;20205;-62
2021/04/22 05:21:19;;;;;;;17.33;12.30;;;11.70;99.90;;;;;;5070716;28;20205;-61
2021/04/22 05:23:45;;;;;;;16.63;13.33;;;11.70;99.90;;;;;;5070889;28;20225;-61
2021/04/22 05:26:11;;;;;;;15.43;12.87;;;11.80;99.90;;;;;;5070602;28;20209;-62
2021/04/22 05:28:38;;;;;;;20.30;13.90;;;11.70;99.90;;;;;;5070654;28;20591;-61
2021/04/22 05:31:04;;;;;;;15.73;12.37;;;11.60;99.90;;;;;;5070789;28;20212;-62
2021/04/22 05:33:30;;;;;;;15.03;12.57;;;11.70;99.90;;;;;;5070597;28;20278;-61
2021/04/22 05:35:57;;;;;;;16.10;14.30;;;11.80;99.90;;;;;;5070707;28;20266;-62
2021/04/22 05:38:24;;;;;;;15.17;13.13;;;11.90;99.90;;;;;;5070522;28;20209;-62
2021/04/22 05:40:50;;;;;;;15.33;12.77;;;12.20;99.90;;;;;;5071170;28;20201;-62
2021/04/22 05:43:16;;;;;;;14.70;11.40;;;12.30;99.90;;;;;;5070832;28;20225;-62
2021/04/22 05:45:42;;;;;;;18.00;14.07;;;12.30;99.80;;;;;;5071035;28;20507;-62
2021/04/22 05:48:09;;;;;;;16.33;12.77;;;12.10;99.90;;;;;;5070727;28;20291;-62
2021/04/22 05:50:35;;;;;;;15.80;12.80;;;12.30;99.90;;;;;;5071501;28;20212;-61
2021/04/22 05:53:02;;;;;;;16.77;12.30;;;12.30;99.50;;;;;;5070645;28;20240;-61
2021/04/22 05:55:29;;;;;;;17.20;12.80;;;12.30;99.40;;;;;;5070671;28;20209;-62
2021/04/22 05:57:56;;;;;;;14.37;11.97;;;12.20;99.60;;;;;;5070408;28;20201;-63
2021/04/22 06:00:24;;;;;;;16.03;12.27;;;12.30;99.50;;;;;;5070706;28;20587;-62
2021/04/22 06:02:50;;;;;;;14.97;12.37;;;12.30;99.50;;;;;;5070554;28;20608;-62
2021/04/22 06:05:17;;;;;;;20.90;13.53;;;12.20;99.50;;;;;;5070500;28;20224;-62
2021/04/22 06:07:43;;;;;;;15.90;13.10;;;12.10;99.80;;;;;;5070626;28;20201;-62
2021/04/22 06:10:10;;;;;;;17.77;12.60;;;12.10;99.80;;;;;;5070852;28;20212;-62
2021/04/22 06:12:37;;;;;;;17.47;13.47;;;12.20;99.80;;;;;;5070757;28;20607;-61
2021/04/22 06:15:06;;;;;;;19.50;13.97;;;12.30;99.50;;;;;;5074423;28;20259;-62
2021/04/22 06:17:32;;;;;;;16.60;13.83;;;12.50;99.20;;;;;;5074085;28;20217;-62
2021/04/22 06:19:58;;;;;;;20.57;14.10;;;12.60;99.20;;;;;;5073944;28;20213;-61
2021/04/22 06:22:25;;;;;;;17.20;14.03;;;12.70;99.00;;;;;;5074144;28;20225;-62
2021/04/22 06:24:51;;;;;;;15.03;13.13;;;12.80;98.40;;;;;;5073544;28;20626;-62
2021/04/22 06:27:17;;;;;;;29.27;20.90;;;12.90;98.40;;;;;;5074326;28;20259;-62
2021/04/22 06:29:44;;;;;;;21.00;16.73;;;13.10;98.10;;;;;;5073622;28;20668;-62
2021/04/22 06:32:11;;;;;;;17.83;13.90;;;13.20;97.70;;;;;;5073729;28;20735;-62
2021/04/22 06:34:37;;;;;;;18.93;14.07;;;13.30;97.20;;;;;;5073398;28;20243;-62
2021/04/22 06:37:04;;;;;;;16.70;13.83;;;13.30;97.10;;;;;;5074241;28;20209;-63
2021/04/22 06:39:30;;;;;;;19.07;13.57;;;13.40;97.20;;;;;;5073943;28;20213;-62
2021/04/22 06:41:57;;;;;;;20.13;14.27;;;13.50;96.80;;;;;;5073752;28;20229;-62
2021/04/22 06:44:23;;;;;;;18.47;13.50;;;13.60;96.50;;;;;;5073572;28;20221;-62
2021/04/22 06:46:51;;;;;;;16.53;13.00;;;13.90;96.20;;;;;;5073588;28;20209;-62
2021/04/22 06:49:17;;;;;;;19.77;13.13;;;13.90;95.50;;;;;;5073149;28;20209;-62
2021/04/22 06:51:43;;;;;;;18.53;13.13;;;14.00;95.50;;;;;;5073135;28;20213;-61
2021/04/22 06:54:09;;;;;;;17.20;13.73;;;14.00;95.50;;;;;;5073023;28;20403;-62
2021/04/22 06:56:35;;;;;;;17.73;13.40;;;14.30;95.10;;;;;;5073225;28;20236;-62
2021/04/22 06:59:03;;;;;;;19.53;12.80;;;14.60;94.70;;;;;;5073280;28;20700;-61
2021/04/22 07:01:30;;;;;;;18.30;13.10;;;14.60;94.40;;;;;;5073293;28;20201;-62
2021/04/22 07:03:57;;;;;;;19.40;14.10;;;14.60;94.30;;;;;;5073438;28;20235;-62
2021/04/22 07:06:23;;;;;;;19.27;13.57;;;14.70;93.80;;;;;;5073817;28;20247;-62
2021/04/22 07:08:50;;;;;;;18.60;12.73;;;14.80;93.30;;;;;;5072717;28;20219;-62
2021/04/22 07:11:16;;;;;;;16.47;12.43;;;15.00;92.90;;;;;;5073103;28;20660;-62
2021/04/22 07:13:42;;;;;;;13.77;11.53;;;15.20;92.70;;;;;;5072753;28;20228;-62
2021/04/22 07:16:08;;;;;;;16.67;12.33;;;15.20;92.60;;;;;;5073312;28;20258;-63
2021/04/22 07:18:35;;;;;;;15.40;11.03;;;15.40;92.10;;;;;;5072965;28;20367;-63
2021/04/22 07:21:02;;;;;;;15.97;10.73;;;15.50;91.20;;;;;;5073072;28;20685;-62
2021/04/22 07:23:28;;;;;;;17.20;11.90;;;15.70;90.30;;;;;;5072774;28;20228;-62
2021/04/22 07:25:55;;;;;;;16.33;11.07;;;15.80;90.30;;;;;;5071572;28;20211;-62
2021/04/22 07:28:22;;;;;;;18.80;10.53;;;15.90;90.00;;;;;;5072603;28;20219;-62
2021/04/22 07:30:49;;;;;;;15.73;10.33;;;16.00;88.80;;;;;;5072471;28;20208;-62
2021/04/22 07:33:16;;;;;;;13.80;9.40;;;16.20;87.20;;;;;;5072194;28;20366;-62
2021/04/22 07:35:42;;;;;;;13.87;9.17;;;16.60;85.10;;;;;;5072311;28;20278;-63
2021/04/22 07:38:11;;;;;;;12.30;8.93;;;16.50;84.10;;;;;;5072275;28;20211;-62
2021/04/22 07:40:39;;;;;;;16.23;9.47;;;16.20;84.70;;;;;;5072141;28;20668;-63
2021/04/22 07:43:05;;;;;;;13.83;8.53;;;16.20;85.40;;;;;;5072341;28;20233;-63
2021/04/22 07:45:34;;;;;;;13.40;8.53;;;16.30;84.00;;;;;;5072416;28;20248;-62
2021/04/22 07:48:01;;;;;;;11.90;7.53;;;16.40;84.00;;;;;;5072332;28;20228;-61
2021/04/22 07:50:27;;;;;;;16.00;8.40;;;16.20;82.00;;;;;;5072326;28;20235;-62
2021/04/22 07:52:54;;;;;;;12.70;8.30;;;16.10;81.60;;;;;;5072250;28;20229;-63
2021/04/22 07:55:23;;;;;;;14.13;9.03;;;16.20;81.70;;;;;;5072505;28;20197;-62
2021/04/22 07:57:49;;;;;;;12.80;8.63;;;16.40;81.80;;;;;;5071956;28;20209;-63
2021/04/22 08:00:19;;;;;;;13.23;9.00;;;16.70;81.60;;;;;;5072145;28;20209;-62
2021/04/22 08:02:47;;;;;;;12.70;8.97;;;17.40;79.20;;;;;;5072062;28;20225;-63
2021/04/22 08:05:15;;;;;;;19.40;14.20;;;18.40;76.40;;;;;;5072216;28;20625;-62
2021/04/22 08:07:41;;;;;;;12.85;8.30;;;19.20;74.40;;;;;;5071647;28;20738;-63
2021/04/22 08:10:09;;;;;;;12.00;8.02;;;19.80;70.40;;;;;;5072181;28;20205;-64
2021/04/22 08:12:37;;;;;;;12.18;8.00;;;20.00;69.20;;;;;;5071878;28;20233;-64
2021/04/22 08:15:03;;;;;;;13.82;7.45;;;20.20;68.10;;;;;;5071841;28;20207;-63
2021/04/22 08:17:29;;;;;;;10.07;7.15;;;20.50;67.50;;;;;;5071872;28;20208;-64
2021/04/22 08:19:56;;;;;;;11.80;7.30;;;20.60;65.60;;;;;;5072122;28;20231;-64
2021/04/22 08:22:22;;;;;;;12.57;7.53;;;20.80;64.20;;;;;;5071744;28;20228;-64
2021/04/22 08:24:48;;;;;;;11.93;7.40;;;20.40;65.00;;;;;;5071048;28;20299;-63
2021/04/22 08:27:15;;;;;;;11.73;7.80;;;20.30;64.80;;;;;;5071281;28;20685;-63
2021/04/22 08:29:42;;;;;;;11.27;8.23;;;20.30;63.80;;;;;;5071737;28;20201;-64
2021/04/22 08:32:08;;;;;;;12.50;8.00;;;20.10;64.00;;;;;;5071500;28;20227;-64
2021/04/22 08:34:34;;;;;;;12.75;8.45;;;19.70;64.60;;;;;;5071409;28;20204;-64
2021/04/22 08:37:01;;;;;;;12.32;8.02;;;19.40;65.10;;;;;;5071236;28;20255;-63
2021/04/22 08:39:27;;;;;;;10.50;7.88;;;19.20;65.50;;;;;;5071304;28;20209;-64
2021/04/22 08:41:54;;;;;;;13.98;8.63;;;19.00;65.40;;;;;;5071562;28;20236;-64
2021/04/22 08:44:20;;;;;;;16.27;9.32;;;18.70;66.20;;;;;;5070958;28;20228;-63
2021/04/22 08:46:48;;;;;;;14.10;9.13;;;18.50;67.10;;;;;;5071230;28;20205;-64
2021/04/22 08:49:15;;;;;;;15.10;9.20;;;18.70;67.20;;;;;;5071052;28;20201;-66
2021/04/22 08:51:42;;;;;;;12.02;8.27;;;19.10;66.50;;;;;;5070905;28;20208;-64
2021/04/22 08:54:08;;;;;;;13.38;8.48;;;19.50;65.30;;;;;;5070998;28;20212;-64
2021/04/22 08:56:37;;;;;;;12.82;7.90;;;19.60;64.80;;;;;;5071007;28;20669;-64
2021/04/22 08:59:04;;;;;;;12.88;8.10;;;19.70;64.20;;;;;;5070941;28;20209;-63
2021/04/22 09:01:32;;;;;;;12.32;7.72;;;19.40;64.60;;;;;;5070975;28;20585;-64
2021/04/22 09:04:01;;;;;;;14.57;8.07;;;19.10;64.80;;;;;;5070585;28;20221;-64
2021/04/22 09:06:28;;;;;;;13.40;7.65;;;18.80;65.40;;;;;;5070876;28;20212;-63
2021/04/22 09:08:55;;;;;;;13.75;7.88;;;18.50;65.90;;;;;;5070576;28;20205;-64
2021/04/22 09:11:23;;;;;;;12.17;8.20;;;18.20;66.60;;;;;;5070765;28;20231;-64
2021/04/22 09:13:50;;;;;;;8.63;7.03;;;18.20;66.90;;;;;;5069112;22;20233;-63
2021/04/22 09:16:17;;;;;;;11.03;6.83;;;18.50;67.20;;;;;;5050530;28;20747;-62
2021/04/22 09:18:46;;;;;;;15.43;7.67;;;18.70;66.30;;;;;;5050512;28;20282;-63
2021/04/22 09:21:21;;;;;;;14.50;7.93;;;18.60;67.00;;;;;;5051002;28;20202;-61
2021/04/22 09:23:59;;;;;;;12.10;7.30;;;18.40;66.20;;;;;;5064520;28;20217;-63
2021/04/22 09:26:36;;;;;;;10.80;6.78;;;18.30;65.90;;;;;;5070771;28;20208;-63
2021/04/22 09:29:03;;;;;;;14.77;6.50;;;18.10;67.00;;;;;;5070940;28;20208;-65
2021/04/22 09:31:30;;;;;;;9.95;5.95;;;18.00;67.40;;;;;;5076003;28;20209;-63
2021/04/22 09:34:05;;;;;;;11.20;6.50;;;17.70;66.90;;;;;;5072820;28;20240;-64
2021/04/22 09:36:48;;;;;;;10.63;5.53;;;17.30;68.10;;;;;;5074455;28;20211;-61
2021/04/22 09:39:17;;;;;;;8.47;6.17;;;17.10;68.90;;;;;;5065944;28;20206;-62
2021/04/22 09:41:44;;;;;;;7.97;5.33;;;17.00;66.90;;;;;;5050185;28;20209;-59
2021/04/22 09:44:12;;;;;;;33.57;8.37;;;17.00;67.70;;;;;;5049756;28;20229;-61
2021/04/22 09:46:42;;;;;;;28.60;8.00;;;17.00;67.30;;;;;;5050287;28;20216;-59
2021/04/22 09:49:11;;;;;;;13.23;5.53;;;17.10;64.10;;;;;;5052658;28;20206;-61
2021/04/22 09:51:38;;;;;;;8.13;5.10;;;16.90;62.30;;;;;;5056492;28;20623;-62
2021/04/22 09:54:12;;;;;;;742.07;83.27;;;16.80;63.80;;;;;;5055031;28;20221;-62
2021/04/22 09:56:48;;;;;;;126.63;17.90;;;16.70;63.20;;;;;;5056089;28;20202;-61
2021/04/22 09:59:18;;;;;;;18.93;6.03;;;16.80;61.40;;;;;;5055674;28;20205;-60
2021/04/22 10:01:47;;;;;;;24.17;5.23;;;17.00;60.60;;;;;;5055228;28;20251;-61
2021/04/22 10:04:15;;;;;;;8.40;4.63;;;17.20;58.40;;;;;;5053486;28;20693;-62
2021/04/22 10:06:44;;;;;;;12.93;4.87;;;17.30;60.10;;;;;;5053988;28;20209;-62
2021/04/22 10:09:12;;;;;;;9.63;5.33;;;17.10;59.10;;;;;;5053323;28;20815;-62
2021/04/22 10:11:43;;;;;;;9.60;5.10;;;16.80;62.80;;;;;;5054167;28;20209;-61
2021/04/22 10:14:09;;;;;;;9.07;5.50;;;16.70;62.30;;;;;;5054082;28;20596;-62
2021/04/22 10:16:35;;;;;;;12.40;5.70;;;16.70;61.90;;;;;;5053871;28;20661;-63
2021/04/22 10:19:02;;;;;;;11.63;4.30;;;16.90;60.40;;;;;;5054144;28;20206;-62
2021/04/22 10:21:28;;;;;;;8.73;4.43;;;17.00;58.00;;;;;;5054379;28;20209;-64
2021/04/22 10:24:03;;;;;;;7.20;3.97;;;17.00;57.80;;;;;;5053221;28;20674;-62
2021/04/22 10:26:30;;;;;;;9.90;3.70;;;17.00;57.40;;;;;;5053584;28;20204;-62
2021/04/22 10:28:56;;;;;;;6.70;3.00;;;17.00;56.20;;;;;;5053199;28;20205;-61
2021/04/22 10:31:25;;;;;;;7.00;3.30;;;16.90;53.80;;;;;;5053409;28;20690;-62
2021/04/22 10:33:52;;;;;;;7.47;3.53;;;16.90;53.00;;;;;;5053280;28;20257;-62
2021/04/22 10:36:20;;;;;;;5.80;3.40;;;17.00;52.60;;;;;;5053649;28;20247;-62
2021/04/22 10:38:50;;;;;;;5.87;3.40;;;16.90;52.40;;;;;;5053121;28;20252;-61
2021/04/22 10:41:17;;;;;;;5.87;3.20;;;16.90;52.60;;;;;;5053159;28;20206;-61
2021/04/22 10:43:44;;;;;;;6.67;3.00;;;16.90;50.20;;;;;;5052899;28;20233;-63
2021/04/22 10:46:11;;;;;;;9.63;4.50;;;17.10;50.10;;;;;;5052717;28;20216;-64
2021/04/22 10:48:38;;;;;;;11.27;4.13;;;17.20;52.10;;;;;;5052897;28;20275;-61
2021/04/22 10:51:06;;;;;;;8.13;3.63;;;17.20;53.50;;;;;;5052859;28;20650;-62
2021/04/22 10:53:38;;;;;;;9.43;3.60;;;17.00;54.00;;;;;;5053014;28;20230;-60
2021/04/22 10:56:05;;;;;;;7.47;4.00;;;17.00;53.70;;;;;;5053352;28;20692;-61
2021/04/22 10:58:37;;;;;;;8.40;3.67;;;17.10;53.70;;;;;;5053082;28;20209;-62
2021/04/22 11:01:07;;;;;;;11.57;4.33;;;17.20;53.90;;;;;;5052989;28;20205;-64
2021/04/22 11:03:35;;;;;;;12.50;4.80;;;17.30;53.60;;;;;;5053140;28;20225;-62
2021/04/22 11:06:04;;;;;;;10.33;4.60;;;17.10;54.90;;;;;;5052841;28;20687;-63
2021/04/22 11:08:39;;;;;;;9.37;4.43;;;17.10;55.00;;;;;;5052840;28;20264;-63
2021/04/22 11:11:20;;;;;;;9.67;3.77;;;17.00;55.40;;;;;;5052798;28;20304;-61
2021/04/22 11:13:47;;;;;;;27.07;5.30;;;17.10;54.20;;;;;;5052107;28;20229;-62
2021/04/22 11:16:15;;;;;;;9.20;3.53;;;17.20;54.50;;;;;;5052515;28;20582;-63
2021/04/22 11:18:43;;;;;;;4.83;2.90;;;17.30;51.60;;;;;;5052379;28;20489;-62
2021/04/22 11:21:25;;;;;;;5.57;2.90;;;17.50;50.10;;;;;;5052261;28;20210;-62
2021/04/22 11:23:53;;;;;;;5.47;2.90;;;17.50;48.70;;;;;;5049501;28;20232;-62
2021/04/22 11:26:22;;;;;;;8.07;3.10;;;17.20;48.40;;;;;;5051962;28;20251;-63
2021/04/22 11:28:49;;;;;;;9.13;2.87;;;17.00;47.40;;;;;;5052369;28;20212;-63
2021/04/22 11:31:18;;;;;;;9.40;2.73;;;17.00;47.10;;;;;;5052502;28;20213;-63
2021/04/22 11:33:45;;;;;;;5.13;2.30;;;17.10;46.10;;;;;;5052451;28;20778;-63
2021/04/22 11:36:17;;;;;;;4.83;2.40;;;17.30;45.10;;;;;;5052144;28;20221;-61
2021/04/22 11:38:58;;;;;;;7.93;2.90;;;17.40;44.70;;;;;;5052112;28;20747;-61
2021/04/22 11:41:27;;;;;;;111.47;15.43;;;17.40;44.40;;;;;;5052383;28;20213;-61
2021/04/22 11:44:09;;;;;;;22.83;4.37;;;17.30;44.90;;;;;;5052209;28;20225;-62
2021/04/22 11:46:41;;;;;;;8.63;3.40;;;17.40;46.50;;;;;;5052353;28;20209;-62
2021/04/22 11:49:08;;;;;;;8.73;3.20;;;17.40;45.90;;;;;;5051941;28;20688;-62
2021/04/22 11:51:38;;;;;;;7.90;3.03;;;17.30;46.00;;;;;;5052691;28;20456;-62
2021/04/22 11:54:16;;;;;;;7.13;3.27;;;17.30;47.10;;;;;;5052166;28;20232;-63
2021/04/22 11:56:42;;;;;;;139.03;17.57;;;17.40;46.30;;;;;;5052114;28;20213;-64
2021/04/22 11:59:15;;;;;;;7.83;3.27;;;17.50;46.40;;;;;;5051935;28;20280;-62
2021/04/22 12:01:53;;;;;;;6.50;2.93;;;17.60;47.40;;;;;;5051827;28;20240;-62
2021/04/22 12:04:19;;;;;;;6.33;3.17;;;17.50;47.40;;;;;;5051830;28;20228;-62
2021/04/22 12:06:50;;;;;;;10.25;3.63;;;17.60;48.20;;;;;;5049451;28;20447;-59
2021/04/22 12:09:26;;;;;;;9.63;3.00;;;17.50;47.60;;;;;;5051862;28;20276;-63
2021/04/22 12:11:52;;;;;;;5.87;3.17;;;17.50;47.60;;;;;;5054703;28;20216;-64
2021/04/22 12:14:27;;;;;;;8.37;4.13;;;17.50;46.30;;;;;;5054932;28;20213;-61
2021/04/22 12:16:54;;;;;;;9.93;4.43;;;17.30;47.50;;;;;;5054959;28;20215;-64
2021/04/22 12:19:24;;;;;;;7.50;3.53;;;17.20;48.50;;;;;;5052551;28;20213;-62
2021/04/22 12:21:50;;;;;;;7.73;2.90;;;17.30;48.30;;;;;;5053088;28;20209;-59
2021/04/22 12:24:21;;;;;;;6.40;2.60;;;17.50;46.40;;;;;;5052071;28;20222;-62
2021/04/22 12:26:47;;;;;;;6.47;3.00;;;17.70;45.30;;;;;;5053343;28;20262;-63
2021/04/22 12:29:15;;;;;;;8.17;2.90;;;17.70;44.90;;;;;;5051382;28;20670;-62
2021/04/22 12:31:43;;;;;;;7.70;2.67;;;17.70;44.30;;;;;;5051225;28;20664;-65
2021/04/22 12:34:12;;;;;;;6.30;2.80;;;17.80;43.40;;;;;;5051439;28;20222;-63
2021/04/22 12:36:51;;;;;;;10.53;4.50;;;17.80;44.50;;;;;;5051346;28;20261;-61
2021/04/22 12:39:23;;;;;;;6.87;2.93;;;17.60;43.60;;;;;;5051215;28;20213;-62